sensor_id;sensor_type;location;lat;lon;timestamp;pressure;altitude;pressure_sealevel;temperature
73685;BMP280;61985;51.070;14.064;2023-09-12T00:02:04;98377.69;;;16.93
73685;BMP280;61985;51.070;14.064;2023-09-12T00:04:30;98375.47;;;16.92
73685;BMP280;61985;51.070;14.064;2023-09-12T00:06:55;98371.84;;;16.80
73685;BMP280;61985;51.070;14.064;2023-09-12T00:09:21;98377.00;;;16.78
73685;BMP280;61985;51.070;14.064;2023-09-12T00:11:46;98366.00;;;16.67
73685;BMP280;61985;51.070;14.064;2023-09-12T00:14:15;98360.13;;;16.74
73685;BMP280;61985;51.070;14.064;2023-09-12T00:16:41;98358.31;;;16.86
73685;BMP280;61985;51.070;14.064;2023-09-12T00:19:07;98366.03;;;16.87
73685;BMP280;61985;51.070;14.064;2023-09-12T00:21:32;98360.63;;;16.93
73685;BMP280;61985;51.070;14.064;2023-09-12T00:23:57;98365.53;;;16.89
73685;BMP280;61985;51.070;14.064;2023-09-12T00:26:23;98364.00;;;16.82
73685;BMP280;61985;51.070;14.064;2023-09-12T00:28:48;98356.59;;;16.68
73685;BMP280;61985;51.070;14.064;2023-09-12T00:31:13;98352.06;;;16.59
73685;BMP280;61985;51.070;14.064;2023-09-12T00:33:39;98354.41;;;16.72
73685;BMP280;61985;51.070;14.064;2023-09-12T00:36:04;98357.09;;;16.66
73685;BMP280;61985;51.070;14.064;2023-09-12T00:38:29;98349.81;;;16.58
73685;BMP280;61985;51.070;14.064;2023-09-12T00:40:55;98351.75;;;16.57
73685;BMP280;61985;51.070;14.064;2023-09-12T00:43:20;98349.53;;;16.56
73685;BMP280;61985;51.070;14.064;2023-09-12T00:45:46;98348.78;;;16.55
73685;BMP280;61985;51.070;14.064;2023-09-12T00:48:12;98357.13;;;16.51
73685;BMP280;61985;51.070;14.064;2023-09-12T00:50:39;98346.53;;;16.54
73685;BMP280;61985;51.070;14.064;2023-09-12T00:53:05;98350.31;;;16.41
73685;BMP280;61985;51.070;14.064;2023-09-12T00:55:32;98343.78;;;16.33
73685;BMP280;61985;51.070;14.064;2023-09-12T00:58:00;98344.63;;;16.39
73685;BMP280;61985;51.070;14.064;2023-09-12T01:00:26;98353.53;;;16.40
73685;BMP280;61985;51.070;14.064;2023-09-12T01:02:51;98353.97;;;16.38
73685;BMP280;61985;51.070;14.064;2023-09-12T01:05:19;98353.06;;;16.26
73685;BMP280;61985;51.070;14.064;2023-09-12T01:07:46;98362.25;;;16.29
73685;BMP280;61985;51.070;14.064;2023-09-12T01:10:11;98359.53;;;16.29
73685;BMP280;61985;51.070;14.064;2023-09-12T01:12:37;98359.22;;;16.42
73685;BMP280;61985;51.070;14.064;2023-09-12T01:15:03;98358.88;;;16.34
73685;BMP280;61985;51.070;14.064;2023-09-12T01:17:33;98361.03;;;16.30
73685;BMP280;61985;51.070;14.064;2023-09-12T01:20:00;98359.25;;;16.27
73685;BMP280;61985;51.070;14.064;2023-09-12T01:22:36;98367.41;;;16.27
73685;BMP280;61985;51.070;14.064;2023-09-12T01:27:55;98358.31;;;16.15
73685;BMP280;61985;51.070;14.064;2023-09-12T01:30:21;98364.44;;;16.10
73685;BMP280;61985;51.070;14.064;2023-09-12T01:32:50;98364.06;;;16.02
73685;BMP280;61985;51.070;14.064;2023-09-12T01:35:16;98363.22;;;16.11
73685;BMP280;61985;51.070;14.064;2023-09-12T01:37:41;98368.19;;;16.13
73685;BMP280;61985;51.070;14.064;2023-09-12T01:40:07;98368.75;;;16.17
73685;BMP280;61985;51.070;14.064;2023-09-12T01:42:37;98372.22;;;16.02
73685;BMP280;61985;51.070;14.064;2023-09-12T01:45:04;98363.50;;;15.98
73685;BMP280;61985;51.070;14.064;2023-09-12T01:47:30;98370.84;;;16.07
73685;BMP280;61985;51.070;14.064;2023-09-12T01:49:58;98372.00;;;15.91
73685;BMP280;61985;51.070;14.064;2023-09-12T01:52:27;98360.50;;;15.81
73685;BMP280;61985;51.070;14.064;2023-09-12T01:54:53;98369.41;;;15.82
73685;BMP280;61985;51.070;14.064;2023-09-12T01:57:20;98364.56;;;15.71
73685;BMP280;61985;51.070;14.064;2023-09-12T01:59:49;98373.25;;;15.60
73685;BMP280;61985;51.070;14.064;2023-09-12T02:02:16;98364.56;;;15.71
73685;BMP280;61985;51.070;14.064;2023-09-12T02:04:43;98371.94;;;15.70
73685;BMP280;61985;51.070;14.064;2023-09-12T02:07:12;98361.38;;;15.73
73685;BMP280;61985;51.070;14.064;2023-09-12T02:09:37;98359.84;;;15.72
73685;BMP280;61985;51.070;14.064;2023-09-12T02:12:03;98371.38;;;15.66
73685;BMP280;61985;51.070;14.064;2023-09-12T02:14:28;98364.16;;;15.63
73685;BMP280;61985;51.070;14.064;2023-09-12T02:16:54;98367.25;;;15.56
73685;BMP280;61985;51.070;14.064;2023-09-12T02:19:19;98366.75;;;15.58
73685;BMP280;61985;51.070;14.064;2023-09-12T02:21:45;98358.34;;;15.56
73685;BMP280;61985;51.070;14.064;2023-09-12T02:24:10;98366.66;;;15.37
73685;BMP280;61985;51.070;14.064;2023-09-12T02:26:35;98366.47;;;15.41
73685;BMP280;61985;51.070;14.064;2023-09-12T02:29:02;98363.94;;;15.37
73685;BMP280;61985;51.070;14.064;2023-09-12T02:31:28;98359.97;;;15.23
73685;BMP280;61985;51.070;14.064;2023-09-12T02:33:54;98373.03;;;15.34
73685;BMP280;61985;51.070;14.064;2023-09-12T02:36:22;98370.78;;;15.33
73685;BMP280;61985;51.070;14.064;2023-09-12T02:38:47;98358.09;;;15.29
73685;BMP280;61985;51.070;14.064;2023-09-12T02:41:15;98354.91;;;15.16
73685;BMP280;61985;51.070;14.064;2023-09-12T02:43:40;98364.88;;;15.10
73685;BMP280;61985;51.070;14.064;2023-09-12T02:46:06;98359.19;;;15.08
73685;BMP280;61985;51.070;14.064;2023-09-12T02:48:31;98366.34;;;14.96
73685;BMP280;61985;51.070;14.064;2023-09-12T02:50:57;98363.75;;;15.02
73685;BMP280;61985;51.070;14.064;2023-09-12T02:53:22;98364.78;;;15.04
73685;BMP280;61985;51.070;14.064;2023-09-12T02:55:48;98363.09;;;15.07
73685;BMP280;61985;51.070;14.064;2023-09-12T02:58:13;98371.88;;;15.02
73685;BMP280;61985;51.070;14.064;2023-09-12T03:00:39;98361.66;;;14.97
73685;BMP280;61985;51.070;14.064;2023-09-12T03:03:07;98368.75;;;14.94
73685;BMP280;61985;51.070;14.064;2023-09-12T03:05:34;98369.38;;;14.89
73685;BMP280;61985;51.070;14.064;2023-09-12T03:08:02;98363.81;;;14.93
73685;BMP280;61985;51.070;14.064;2023-09-12T03:10:28;98361.72;;;14.87
73685;BMP280;61985;51.070;14.064;2023-09-12T03:12:54;98364.13;;;14.85
73685;BMP280;61985;51.070;14.064;2023-09-12T03:15:19;98363.19;;;14.88
73685;BMP280;61985;51.070;14.064;2023-09-12T03:17:45;98362.53;;;14.79
73685;BMP280;61985;51.070;14.064;2023-09-12T03:20:11;98363.31;;;14.70
73685;BMP280;61985;51.070;14.064;2023-09-12T03:22:36;98361.19;;;14.74
73685;BMP280;61985;51.070;14.064;2023-09-12T03:25:03;98360.44;;;14.74
73685;BMP280;61985;51.070;14.064;2023-09-12T03:27:29;98360.88;;;14.72
73685;BMP280;61985;51.070;14.064;2023-09-12T03:29:54;98355.16;;;14.70
73685;BMP280;61985;51.070;14.064;2023-09-12T03:32:19;98366.88;;;14.76
73685;BMP280;61985;51.070;14.064;2023-09-12T03:34:45;98351.59;;;14.64
73685;BMP280;61985;51.070;14.064;2023-09-12T03:37:10;98351.88;;;14.66
73685;BMP280;61985;51.070;14.064;2023-09-12T03:39:38;98355.66;;;14.68
73685;BMP280;61985;51.070;14.064;2023-09-12T03:42:04;98360.13;;;14.72
73685;BMP280;61985;51.070;14.064;2023-09-12T03:44:29;98347.03;;;14.70
73685;BMP280;61985;51.070;14.064;2023-09-12T03:46:55;98352.75;;;14.72
73685;BMP280;61985;51.070;14.064;2023-09-12T03:49:20;98343.69;;;14.75
73685;BMP280;61985;51.070;14.064;2023-09-12T03:51:45;98349.13;;;14.75
73685;BMP280;61985;51.070;14.064;2023-09-12T03:54:11;98347.97;;;14.67
73685;BMP280;61985;51.070;14.064;2023-09-12T03:56:36;98349.47;;;14.68
73685;BMP280;61985;51.070;14.064;2023-09-12T03:59:02;98346.44;;;14.66
73685;BMP280;61985;51.070;14.064;2023-09-12T04:01:30;98356.94;;;14.49
73685;BMP280;61985;51.070;14.064;2023-09-12T04:03:56;98349.56;;;14.50
73685;BMP280;61985;51.070;14.064;2023-09-12T04:06:21;98352.16;;;14.44
73685;BMP280;61985;51.070;14.064;2023-09-12T04:08:47;98349.78;;;14.37
73685;BMP280;61985;51.070;14.064;2023-09-12T04:11:12;98353.88;;;14.32
73685;BMP280;61985;51.070;14.064;2023-09-12T04:13:37;98350.69;;;14.34
73685;BMP280;61985;51.070;14.064;2023-09-12T04:16:03;98366.16;;;14.42
73685;BMP280;61985;51.070;14.064;2023-09-12T04:18:28;98357.47;;;14.38
73685;BMP280;61985;51.070;14.064;2023-09-12T04:20:54;98359.72;;;14.31
73685;BMP280;61985;51.070;14.064;2023-09-12T04:23:22;98348.91;;;14.31
73685;BMP280;61985;51.070;14.064;2023-09-12T04:25:47;98346.75;;;14.35
73685;BMP280;61985;51.070;14.064;2023-09-12T04:28:13;98356.97;;;14.40
73685;BMP280;61985;51.070;14.064;2023-09-12T04:30:38;98350.53;;;14.37
73685;BMP280;61985;51.070;14.064;2023-09-12T04:33:05;98356.69;;;14.38
73685;BMP280;61985;51.070;14.064;2023-09-12T04:35:33;98343.28;;;14.34
73685;BMP280;61985;51.070;14.064;2023-09-12T04:37:58;98350.84;;;14.30
73685;BMP280;61985;51.070;14.064;2023-09-12T04:40:24;98352.06;;;14.29
73685;BMP280;61985;51.070;14.064;2023-09-12T04:42:49;98354.75;;;14.38
73685;BMP280;61985;51.070;14.064;2023-09-12T04:45:15;98357.72;;;14.40
73685;BMP280;61985;51.070;14.064;2023-09-12T04:47:40;98352.91;;;14.44
73685;BMP280;61985;51.070;14.064;2023-09-12T04:50:06;98350.22;;;14.44
73685;BMP280;61985;51.070;14.064;2023-09-12T04:52:31;98348.94;;;14.45
73685;BMP280;61985;51.070;14.064;2023-09-12T04:54:57;98354.53;;;14.51
73685;BMP280;61985;51.070;14.064;2023-09-12T04:57:22;98349.84;;;14.52
73685;BMP280;61985;51.070;14.064;2023-09-12T04:59:47;98341.97;;;14.63
73685;BMP280;61985;51.070;14.064;2023-09-12T05:02:13;98348.47;;;14.56
73685;BMP280;61985;51.070;14.064;2023-09-12T05:04:38;98346.97;;;14.55
73685;BMP280;61985;51.070;14.064;2023-09-12T05:07:04;98341.03;;;14.66
73685;BMP280;61985;51.070;14.064;2023-09-12T05:09:29;98350.03;;;14.72
73685;BMP280;61985;51.070;14.064;2023-09-12T05:11:54;98347.91;;;14.76
73685;BMP280;61985;51.070;14.064;2023-09-12T05:14:20;98356.31;;;14.78
73685;BMP280;61985;51.070;14.064;2023-09-12T05:16:45;98348.44;;;14.90
73685;BMP280;61985;51.070;14.064;2023-09-12T05:19:11;98349.00;;;14.94
73685;BMP280;61985;51.070;14.064;2023-09-12T05:21:36;98349.41;;;15.01
73685;BMP280;61985;51.070;14.064;2023-09-12T05:24:06;98363.94;;;15.13
73685;BMP280;61985;51.070;14.064;2023-09-12T05:26:32;98367.81;;;15.21
73685;BMP280;61985;51.070;14.064;2023-09-12T05:28:57;98355.41;;;15.29
73685;BMP280;61985;51.070;14.064;2023-09-12T05:31:23;98352.31;;;15.37
73685;BMP280;61985;51.070;14.064;2023-09-12T05:33:49;98359.00;;;15.51
73685;BMP280;61985;51.070;14.064;2023-09-12T05:36:17;98362.38;;;15.60
73685;BMP280;61985;51.070;14.064;2023-09-12T05:38:43;98366.41;;;15.65
73685;BMP280;61985;51.070;14.064;2023-09-12T05:41:11;98364.25;;;15.54
73685;BMP280;61985;51.070;14.064;2023-09-12T05:43:40;98366.03;;;15.57
73685;BMP280;61985;51.070;14.064;2023-09-12T05:46:11;98361.84;;;15.71
73685;BMP280;61985;51.070;14.064;2023-09-12T05:48:37;98360.59;;;15.57
73685;BMP280;61985;51.070;14.064;2023-09-12T05:51:02;98360.41;;;15.61
73685;BMP280;61985;51.070;14.064;2023-09-12T05:53:29;98364.28;;;15.84
73685;BMP280;61985;51.070;14.064;2023-09-12T05:55:54;98362.94;;;15.94
73685;BMP280;61985;51.070;14.064;2023-09-12T05:58:20;98369.59;;;15.93
73685;BMP280;61985;51.070;14.064;2023-09-12T06:00:48;98362.69;;;16.07
73685;BMP280;61985;51.070;14.064;2023-09-12T06:03:22;98379.13;;;16.18
73685;BMP280;61985;51.070;14.064;2023-09-12T06:06:04;98379.03;;;16.27
73685;BMP280;61985;51.070;14.064;2023-09-12T06:08:29;98378.00;;;16.40
73685;BMP280;61985;51.070;14.064;2023-09-12T06:10:55;98385.63;;;16.56
73685;BMP280;61985;51.070;14.064;2023-09-12T06:13:21;98384.75;;;16.65
73685;BMP280;61985;51.070;14.064;2023-09-12T06:15:46;98386.28;;;16.86
73685;BMP280;61985;51.070;14.064;2023-09-12T06:18:12;98379.06;;;17.04
73685;BMP280;61985;51.070;14.064;2023-09-12T06:20:38;98385.00;;;17.23
73685;BMP280;61985;51.070;14.064;2023-09-12T06:23:03;98382.00;;;17.47
73685;BMP280;61985;51.070;14.064;2023-09-12T06:25:29;98380.72;;;17.68
73685;BMP280;61985;51.070;14.064;2023-09-12T06:27:55;98387.34;;;17.88
73685;BMP280;61985;51.070;14.064;2023-09-12T06:30:20;98378.38;;;18.13
73685;BMP280;61985;51.070;14.064;2023-09-12T06:32:46;98387.16;;;18.34
73685;BMP280;61985;51.070;14.064;2023-09-12T06:35:12;98380.56;;;18.47
73685;BMP280;61985;51.070;14.064;2023-09-12T06:37:38;98389.06;;;18.60
73685;BMP280;61985;51.070;14.064;2023-09-12T06:40:05;98396.06;;;18.72
73685;BMP280;61985;51.070;14.064;2023-09-12T06:42:30;98392.66;;;18.89
73685;BMP280;61985;51.070;14.064;2023-09-12T06:44:56;98397.91;;;18.98
73685;BMP280;61985;51.070;14.064;2023-09-12T06:47:24;98399.19;;;19.08
73685;BMP280;61985;51.070;14.064;2023-09-12T06:49:52;98403.94;;;19.19
73685;BMP280;61985;51.070;14.064;2023-09-12T06:52:17;98398.03;;;19.26
73685;BMP280;61985;51.070;14.064;2023-09-12T06:54:46;98411.69;;;19.37
73685;BMP280;61985;51.070;14.064;2023-09-12T06:57:11;98405.97;;;19.47
73685;BMP280;61985;51.070;14.064;2023-09-12T06:59:37;98408.00;;;19.57
73685;BMP280;61985;51.070;14.064;2023-09-12T07:02:03;98402.53;;;19.69
73685;BMP280;61985;51.070;14.064;2023-09-12T07:04:29;98408.72;;;19.86
73685;BMP280;61985;51.070;14.064;2023-09-12T07:06:57;98401.03;;;20.01
73685;BMP280;61985;51.070;14.064;2023-09-12T07:09:25;98395.81;;;20.15
73685;BMP280;61985;51.070;14.064;2023-09-12T07:11:51;98399.75;;;20.42
73685;BMP280;61985;51.070;14.064;2023-09-12T07:14:17;98405.94;;;20.48
73685;BMP280;61985;51.070;14.064;2023-09-12T07:16:42;98397.69;;;20.54
73685;BMP280;61985;51.070;14.064;2023-09-12T07:19:08;98395.94;;;20.56
73685;BMP280;61985;51.070;14.064;2023-09-12T07:21:35;98401.41;;;20.56
73685;BMP280;61985;51.070;14.064;2023-09-12T07:24:03;98408.66;;;20.59
73685;BMP280;61985;51.070;14.064;2023-09-12T07:26:29;98406.63;;;20.60
73685;BMP280;61985;51.070;14.064;2023-09-12T07:28:54;98410.59;;;20.64
73685;BMP280;61985;51.070;14.064;2023-09-12T07:31:20;98417.28;;;20.75
73685;BMP280;61985;51.070;14.064;2023-09-12T07:33:45;98409.50;;;20.96
73685;BMP280;61985;51.070;14.064;2023-09-12T07:36:10;98411.69;;;21.03
73685;BMP280;61985;51.070;14.064;2023-09-12T07:38:37;98409.13;;;21.10
73685;BMP280;61985;51.070;14.064;2023-09-12T07:41:03;98412.31;;;21.26
73685;BMP280;61985;51.070;14.064;2023-09-12T07:43:31;98405.50;;;21.38
73685;BMP280;61985;51.070;14.064;2023-09-12T07:45:59;98407.47;;;21.43
73685;BMP280;61985;51.070;14.064;2023-09-12T07:48:25;98408.16;;;21.49
73685;BMP280;61985;51.070;14.064;2023-09-12T07:50:50;98413.91;;;21.51
73685;BMP280;61985;51.070;14.064;2023-09-12T07:53:24;98411.63;;;21.55
73685;BMP280;61985;51.070;14.064;2023-09-12T07:55:49;98414.00;;;21.70
73685;BMP280;61985;51.070;14.064;2023-09-12T07:58:17;98417.84;;;21.86
73685;BMP280;61985;51.070;14.064;2023-09-12T08:00:47;98417.06;;;21.91
73685;BMP280;61985;51.070;14.064;2023-09-12T08:03:14;98420.72;;;21.99
73685;BMP280;61985;51.070;14.064;2023-09-12T08:05:57;98426.44;;;22.01
73685;BMP280;61985;51.070;14.064;2023-09-12T08:08:31;98424.22;;;22.00
73685;BMP280;61985;51.070;14.064;2023-09-12T08:10:57;98420.16;;;22.07
73685;BMP280;61985;51.070;14.064;2023-09-12T08:13:27;98414.78;;;22.20
73685;BMP280;61985;51.070;14.064;2023-09-12T08:16:00;98418.72;;;22.24
73685;BMP280;61985;51.070;14.064;2023-09-12T08:18:29;98415.94;;;22.30
73685;BMP280;61985;51.070;14.064;2023-09-12T08:21:00;98422.31;;;22.38
73685;BMP280;61985;51.070;14.064;2023-09-12T08:23:27;98409.97;;;22.51
73685;BMP280;61985;51.070;14.064;2023-09-12T08:25:52;98412.13;;;22.58
73685;BMP280;61985;51.070;14.064;2023-09-12T08:28:18;98408.03;;;22.64
73685;BMP280;61985;51.070;14.064;2023-09-12T08:30:44;98418.28;;;22.64
73685;BMP280;61985;51.070;14.064;2023-09-12T08:33:11;98416.81;;;22.63
73685;BMP280;61985;51.070;14.064;2023-09-12T08:35:36;98424.97;;;22.69
73685;BMP280;61985;51.070;14.064;2023-09-12T08:38:02;98411.81;;;22.80
73685;BMP280;61985;51.070;14.064;2023-09-12T08:40:27;98415.41;;;22.94
73685;BMP280;61985;51.070;14.064;2023-09-12T08:42:56;98423.41;;;23.11
73685;BMP280;61985;51.070;14.064;2023-09-12T08:45:22;98413.06;;;23.17
73685;BMP280;61985;51.070;14.064;2023-09-12T08:47:52;98420.81;;;23.19
73685;BMP280;61985;51.070;14.064;2023-09-12T08:50:19;98419.63;;;23.14
73685;BMP280;61985;51.070;14.064;2023-09-12T08:52:46;98417.72;;;23.09
73685;BMP280;61985;51.070;14.064;2023-09-12T08:55:12;98407.22;;;23.07
73685;BMP280;61985;51.070;14.064;2023-09-12T08:57:42;98424.97;;;23.06
73685;BMP280;61985;51.070;14.064;2023-09-12T09:00:08;98422.63;;;23.16
73685;BMP280;61985;51.070;14.064;2023-09-12T09:02:37;98418.03;;;23.38
73685;BMP280;61985;51.070;14.064;2023-09-12T09:05:04;98417.34;;;23.50
73685;BMP280;61985;51.070;14.064;2023-09-12T09:07:33;98415.09;;;23.49
73685;BMP280;61985;51.070;14.064;2023-09-12T09:10:02;98414.91;;;23.60
73685;BMP280;61985;51.070;14.064;2023-09-12T09:12:28;98419.03;;;23.67
73685;BMP280;61985;51.070;14.064;2023-09-12T09:14:53;98407.56;;;23.82
73685;BMP280;61985;51.070;14.064;2023-09-12T09:17:19;98409.47;;;23.87
73685;BMP280;61985;51.070;14.064;2023-09-12T09:19:45;98410.53;;;23.97
73685;BMP280;61985;51.070;14.064;2023-09-12T09:22:11;98409.59;;;23.94
73685;BMP280;61985;51.070;14.064;2023-09-12T09:24:36;98404.06;;;23.94
73685;BMP280;61985;51.070;14.064;2023-09-12T09:27:02;98404.91;;;23.89
73685;BMP280;61985;51.070;14.064;2023-09-12T09:29:28;98406.72;;;24.00
73685;BMP280;61985;51.070;14.064;2023-09-12T09:31:58;98400.41;;;23.92
73685;BMP280;61985;51.070;14.064;2023-09-12T09:34:24;98401.16;;;24.06
73685;BMP280;61985;51.070;14.064;2023-09-12T09:36:56;98397.44;;;24.16
73685;BMP280;61985;51.070;14.064;2023-09-12T09:39:27;98395.72;;;24.53
73685;BMP280;61985;51.070;14.064;2023-09-12T09:41:55;98396.72;;;24.63
73685;BMP280;61985;51.070;14.064;2023-09-12T09:44:22;98396.63;;;24.56
73685;BMP280;61985;51.070;14.064;2023-09-12T09:46:54;98388.97;;;24.62
73685;BMP280;61985;51.070;14.064;2023-09-12T09:49:21;98387.84;;;24.57
73685;BMP280;61985;51.070;14.064;2023-09-12T09:51:47;98396.13;;;24.57
73685;BMP280;61985;51.070;14.064;2023-09-12T09:54:14;98389.84;;;24.91
73685;BMP280;61985;51.070;14.064;2023-09-12T09:56:47;98389.84;;;24.91
73685;BMP280;61985;51.070;14.064;2023-09-12T09:59:20;98388.03;;;24.94
73685;BMP280;61985;51.070;14.064;2023-09-12T10:01:48;98385.38;;;25.01
73685;BMP280;61985;51.070;14.064;2023-09-12T10:04:14;98400.97;;;24.99
73685;BMP280;61985;51.070;14.064;2023-09-12T10:06:43;98389.38;;;25.00
73685;BMP280;61985;51.070;14.064;2023-09-12T10:09:10;98389.88;;;25.12
73685;BMP280;61985;51.070;14.064;2023-09-12T10:11:38;98390.78;;;25.15
73685;BMP280;61985;51.070;14.064;2023-09-12T10:14:04;98398.16;;;25.12
73685;BMP280;61985;51.070;14.064;2023-09-12T10:16:34;98399.31;;;25.17
73685;BMP280;61985;51.070;14.064;2023-09-12T10:19:23;98391.47;;;25.28
73685;BMP280;61985;51.070;14.064;2023-09-12T10:22:01;98390.69;;;25.41
73685;BMP280;61985;51.070;14.064;2023-09-12T10:24:28;98392.47;;;25.60
73685;BMP280;61985;51.070;14.064;2023-09-12T10:26:55;98394.78;;;25.48
73685;BMP280;61985;51.070;14.064;2023-09-12T10:29:22;98392.69;;;25.41
73685;BMP280;61985;51.070;14.064;2023-09-12T10:31:48;98394.84;;;25.56
73685;BMP280;61985;51.070;14.064;2023-09-12T10:34:14;98397.34;;;25.74
73685;BMP280;61985;51.070;14.064;2023-09-12T10:36:40;98409.50;;;26.08
73685;BMP280;61985;51.070;14.064;2023-09-12T10:39:07;98399.50;;;25.97
73685;BMP280;61985;51.070;14.064;2023-09-12T10:41:37;98402.88;;;26.03
73685;BMP280;61985;51.070;14.064;2023-09-12T10:44:11;98403.81;;;26.50
73685;BMP280;61985;51.070;14.064;2023-09-12T10:46:40;98401.22;;;26.52
73685;BMP280;61985;51.070;14.064;2023-09-12T10:49:11;98403.31;;;26.66
73685;BMP280;61985;51.070;14.064;2023-09-12T10:51:44;98397.97;;;26.68
73685;BMP280;61985;51.070;14.064;2023-09-12T10:57:10;98408.69;;;26.72
73685;BMP280;61985;51.070;14.064;2023-09-12T11:02:32;98398.22;;;26.94
73685;BMP280;61985;51.070;14.064;2023-09-12T11:04:58;98393.81;;;27.06
73685;BMP280;61985;51.070;14.064;2023-09-12T11:07:45;98395.50;;;27.32
73685;BMP280;61985;51.070;14.064;2023-09-12T11:12:44;98398.59;;;27.28
73685;BMP280;61985;51.070;14.064;2023-09-12T11:15:10;98401.34;;;27.51
73685;BMP280;61985;51.070;14.064;2023-09-12T11:17:39;98399.06;;;27.80
73685;BMP280;61985;51.070;14.064;2023-09-12T11:20:06;98399.66;;;27.71
73685;BMP280;61985;51.070;14.064;2023-09-12T11:22:40;98394.22;;;27.96
73685;BMP280;61985;51.070;14.064;2023-09-12T11:28:03;98393.31;;;28.42
73685;BMP280;61985;51.070;14.064;2023-09-12T11:30:30;98387.09;;;28.66
73685;BMP280;61985;51.070;14.064;2023-09-12T11:32:56;98386.38;;;29.08
73685;BMP280;61985;51.070;14.064;2023-09-12T11:35:27;98384.91;;;29.32
73685;BMP280;61985;51.070;14.064;2023-09-12T11:37:57;98382.84;;;29.50
73685;BMP280;61985;51.070;14.064;2023-09-12T11:42:59;98374.69;;;29.87
73685;BMP280;61985;51.070;14.064;2023-09-12T11:45:25;98375.06;;;30.01
73685;BMP280;61985;51.070;14.064;2023-09-12T11:47:50;98374.41;;;30.10
73685;BMP280;61985;51.070;14.064;2023-09-12T11:50:33;98369.25;;;30.33
73685;BMP280;61985;51.070;14.064;2023-09-12T11:53:05;98367.88;;;30.52
73685;BMP280;61985;51.070;14.064;2023-09-12T11:55:55;98363.19;;;30.54
73685;BMP280;61985;51.070;14.064;2023-09-12T11:58:21;98368.97;;;30.66
73685;BMP280;61985;51.070;14.064;2023-09-12T12:00:48;98358.09;;;30.60
73685;BMP280;61985;51.070;14.064;2023-09-12T12:03:18;98364.84;;;30.67
73685;BMP280;61985;51.070;14.064;2023-09-12T12:05:45;98362.56;;;30.83
73685;BMP280;61985;51.070;14.064;2023-09-12T12:08:11;98374.31;;;31.01
73685;BMP280;61985;51.070;14.064;2023-09-12T12:10:37;98360.91;;;31.36
73685;BMP280;61985;51.070;14.064;2023-09-12T12:13:11;98359.28;;;31.62
73685;BMP280;61985;51.070;14.064;2023-09-12T12:15:36;98362.94;;;31.55
73685;BMP280;61985;51.070;14.064;2023-09-12T12:18:02;98358.28;;;31.38
73685;BMP280;61985;51.070;14.064;2023-09-12T12:20:28;98368.34;;;31.24
73685;BMP280;61985;51.070;14.064;2023-09-12T12:22:55;98362.19;;;31.25
73685;BMP280;61985;51.070;14.064;2023-09-12T12:25:20;98351.06;;;31.16
73685;BMP280;61985;51.070;14.064;2023-09-12T12:27:47;98353.81;;;30.96
73685;BMP280;61985;51.070;14.064;2023-09-12T12:30:13;98352.38;;;30.95
73685;BMP280;61985;51.070;14.064;2023-09-12T12:32:40;98351.97;;;30.72
73685;BMP280;61985;51.070;14.064;2023-09-12T12:35:06;98352.94;;;31.03
73685;BMP280;61985;51.070;14.064;2023-09-12T12:37:32;98354.31;;;31.22
73685;BMP280;61985;51.070;14.064;2023-09-12T12:39:59;98347.72;;;31.07
73685;BMP280;61985;51.070;14.064;2023-09-12T12:42:25;98351.75;;;30.87
73685;BMP280;61985;51.070;14.064;2023-09-12T12:44:54;98342.66;;;30.77
73685;BMP280;61985;51.070;14.064;2023-09-12T12:47:21;98339.81;;;31.14
73685;BMP280;61985;51.070;14.064;2023-09-12T12:49:50;98338.31;;;31.13
73685;BMP280;61985;51.070;14.064;2023-09-12T12:52:16;98338.16;;;30.91
73685;BMP280;61985;51.070;14.064;2023-09-12T12:54:42;98338.00;;;30.89
73685;BMP280;61985;51.070;14.064;2023-09-12T12:57:09;98336.13;;;30.45
73685;BMP280;61985;51.070;14.064;2023-09-12T12:59:37;98336.91;;;30.75
73685;BMP280;61985;51.070;14.064;2023-09-12T13:02:03;98327.09;;;30.64
73685;BMP280;61985;51.070;14.064;2023-09-12T13:04:36;98330.91;;;30.69
73685;BMP280;61985;51.070;14.064;2023-09-12T13:07:01;98321.00;;;30.85
73685;BMP280;61985;51.070;14.064;2023-09-12T13:09:27;98327.41;;;30.78
73685;BMP280;61985;51.070;14.064;2023-09-12T13:11:53;98326.13;;;30.89
73685;BMP280;61985;51.070;14.064;2023-09-12T13:14:18;98316.06;;;31.03
73685;BMP280;61985;51.070;14.064;2023-09-12T13:16:44;98320.75;;;31.10
73685;BMP280;61985;51.070;14.064;2023-09-12T13:19:10;98332.34;;;31.26
73685;BMP280;61985;51.070;14.064;2023-09-12T13:21:38;98332.06;;;31.41
73685;BMP280;61985;51.070;14.064;2023-09-12T13:24:04;98323.84;;;31.43
73685;BMP280;61985;51.070;14.064;2023-09-12T13:26:29;98327.06;;;31.49
73685;BMP280;61985;51.070;14.064;2023-09-12T13:28:56;98316.50;;;31.28
73685;BMP280;61985;51.070;14.064;2023-09-12T13:31:22;98315.59;;;31.45
73685;BMP280;61985;51.070;14.064;2023-09-12T13:33:48;98318.09;;;31.61
73685;BMP280;61985;51.070;14.064;2023-09-12T13:36:13;98312.66;;;31.72
73685;BMP280;61985;51.070;14.064;2023-09-12T13:38:38;98326.28;;;31.78
73685;BMP280;61985;51.070;14.064;2023-09-12T13:41:04;98322.94;;;31.60
73685;BMP280;61985;51.070;14.064;2023-09-12T13:43:29;98318.06;;;31.80
73685;BMP280;61985;51.070;14.064;2023-09-12T13:45:54;98313.41;;;31.63
73685;BMP280;61985;51.070;14.064;2023-09-12T13:48:20;98318.97;;;31.53
73685;BMP280;61985;51.070;14.064;2023-09-12T13:50:45;98307.31;;;31.96
73685;BMP280;61985;51.070;14.064;2023-09-12T13:53:11;98302.75;;;32.32
73685;BMP280;61985;51.070;14.064;2023-09-12T13:55:36;98309.19;;;32.65
73685;BMP280;61985;51.070;14.064;2023-09-12T13:58:05;98304.09;;;32.83
73685;BMP280;61985;51.070;14.064;2023-09-12T14:00:32;98301.81;;;32.91
73685;BMP280;61985;51.070;14.064;2023-09-12T14:02:58;98304.09;;;32.83
73685;BMP280;61985;51.070;14.064;2023-09-12T14:05:24;98300.84;;;32.87
73685;BMP280;61985;51.070;14.064;2023-09-12T14:07:50;98297.16;;;32.63
73685;BMP280;61985;51.070;14.064;2023-09-12T14:10:16;98307.28;;;32.89
73685;BMP280;61985;51.070;14.064;2023-09-12T14:12:41;98301.81;;;32.91